createdAt,value
2023-10-26T00:00:10.054Z,73.14
2023-10-26T00:02:39.316Z,72.93
2023-10-26T00:05:06.273Z,73.08
2023-10-26T00:07:33.014Z,72.65
2023-10-26T00:09:59.705Z,72.63
2023-10-26T00:12:26.405Z,72.64
2023-10-26T00:14:53.149Z,72.71
2023-10-26T00:17:19.861Z,72.46
2023-10-26T00:19:46.530Z,72.40
2023-10-26T00:22:13.161Z,72.09
2023-10-26T00:24:39.784Z,71.88
2023-10-26T00:27:06.471Z,71.34
2023-10-26T00:29:33.111Z,71.14
2023-10-26T00:31:59.821Z,70.92
2023-10-26T00:34:26.527Z,70.68
2023-10-26T00:36:53.274Z,70.45
2023-10-26T00:39:19.941Z,70.30
2023-10-26T00:41:46.614Z,70.16
2023-10-26T00:44:13.319Z,70.12
2023-10-26T00:46:39.963Z,70.26
2023-10-26T00:49:06.703Z,70.48
2023-10-26T00:51:33.680Z,70.15
2023-10-26T00:54:03.862Z,69.92
2023-10-26T00:56:31.559Z,70.09
2023-10-26T00:58:58.958Z,70.14
2023-10-26T01:01:27.322Z,69.85
2023-10-26T01:03:55.581Z,70.05
2023-10-26T01:06:22.352Z,70.65
2023-10-26T01:08:49.455Z,70.83
2023-10-26T01:11:16.540Z,71.15
2023-10-26T01:13:43.459Z,71.12
2023-10-26T01:16:10.693Z,71.25
2023-10-26T01:18:37.452Z,71.56
2023-10-26T01:21:04.340Z,71.57
2023-10-26T01:23:31.102Z,71.55
2023-10-26T01:25:57.887Z,71.54
2023-10-26T01:28:24.845Z,71.51
2023-10-26T01:30:51.681Z,71.35
2023-10-26T01:33:18.390Z,71.12
2023-10-26T01:35:45.163Z,70.86
2023-10-26T01:38:11.979Z,70.69
2023-10-26T01:40:38.720Z,70.58
2023-10-26T01:43:05.568Z,69.99
2023-10-26T01:45:32.635Z,70.04
2023-10-26T01:48:01.178Z,69.75
2023-10-26T01:50:28.063Z,69.58
2023-10-26T01:52:54.787Z,69.39
2023-10-26T01:55:21.523Z,69.33
2023-10-26T01:57:48.303Z,69.33
2023-10-26T02:00:15.430Z,69.39
2023-10-26T02:02:42.270Z,69.30
2023-10-26T02:05:09.438Z,69.41
2023-10-26T02:07:36.203Z,69.25
2023-10-26T02:10:02.912Z,69.22
2023-10-26T02:12:29.579Z,69.18
2023-10-26T02:14:56.221Z,69.16
2023-10-26T02:17:22.920Z,69.13
2023-10-26T02:19:49.540Z,69.42
2023-10-26T02:22:16.192Z,69.33
2023-10-26T02:24:43.542Z,69.50
2023-10-26T02:27:10.490Z,69.72
2023-10-26T02:29:37.166Z,69.71
2023-10-26T02:32:04.723Z,69.71
2023-10-26T02:34:31.385Z,69.53
2023-10-26T02:36:58.162Z,69.19
2023-10-26T02:39:24.856Z,69.02
2023-10-26T02:41:51.558Z,68.91
2023-10-26T02:44:18.209Z,68.87
2023-10-26T02:46:44.879Z,68.97
2023-10-26T02:49:11.481Z,69.02
2023-10-26T02:51:38.148Z,69.22
2023-10-26T02:54:04.951Z,69.49
2023-10-26T02:56:31.601Z,69.54
2023-10-26T02:58:58.339Z,69.44
2023-10-26T03:01:25.012Z,69.38
2023-10-26T03:03:51.734Z,69.20
2023-10-26T03:06:19.456Z,68.97
2023-10-26T03:08:46.135Z,68.58
2023-10-26T03:11:12.880Z,68.33
2023-10-26T03:13:39.560Z,68.17
2023-10-26T03:16:07.597Z,67.85
2023-10-26T03:18:34.260Z,67.20
2023-10-26T03:21:01.015Z,68.16
2023-10-26T03:23:27.663Z,68.09
2023-10-26T03:25:54.338Z,68.15
2023-10-26T03:28:21.128Z,68.05
2023-10-26T03:30:48.075Z,68.00
2023-10-26T03:33:14.876Z,68.17
2023-10-26T03:35:41.779Z,68.10
2023-10-26T03:38:09.243Z,67.73
2023-10-26T03:40:35.993Z,68.00
2023-10-26T03:43:02.652Z,68.17
2023-10-26T03:45:29.321Z,68.15
2023-10-26T03:47:56.241Z,68.22
2023-10-26T03:50:23.102Z,68.24
2023-10-26T03:52:49.708Z,68.23
2023-10-26T03:55:17.971Z,68.26
2023-10-26T03:57:45.029Z,68.20
2023-10-26T04:00:12.347Z,68.24
2023-10-26T04:02:39.046Z,68.28
2023-10-26T04:05:06.182Z,68.24
2023-10-26T04:07:32.784Z,68.36
2023-10-26T04:09:59.452Z,68.26
2023-10-26T04:12:27.934Z,68.25
2023-10-26T04:14:54.839Z,68.14
2023-10-26T04:17:21.670Z,68.23
2023-10-26T04:19:48.362Z,67.96
2023-10-26T04:22:15.003Z,68.05
2023-10-26T04:24:42.241Z,68.12
2023-10-26T04:27:09.266Z,68.21
2023-10-26T04:29:35.941Z,68.16
2023-10-26T04:32:02.667Z,68.31
2023-10-26T04:34:30.378Z,68.20
2023-10-26T04:36:59.091Z,68.29
2023-10-26T04:39:25.861Z,68.22
2023-10-26T04:41:52.569Z,68.13
2023-10-26T04:44:19.265Z,68.14
2023-10-26T04:46:46.010Z,68.16
2023-10-26T04:49:12.915Z,68.53
2023-10-26T04:51:39.550Z,68.58
2023-10-26T04:54:06.380Z,68.52
2023-10-26T04:56:33.011Z,68.63
2023-10-26T04:58:59.699Z,68.67
2023-10-26T05:01:26.486Z,68.71
2023-10-26T05:03:53.081Z,68.93
2023-10-26T05:06:19.799Z,69.05
2023-10-26T05:08:46.496Z,69.43
2023-10-26T05:11:13.259Z,69.85
2023-10-26T05:13:39.898Z,70.03
2023-10-26T05:16:06.784Z,70.35
2023-10-26T05:18:36.233Z,70.75
2023-10-26T05:21:02.952Z,70.91
2023-10-26T05:23:29.640Z,71.07
2023-10-26T05:25:56.240Z,71.32
2023-10-26T05:28:22.884Z,71.45
2023-10-26T05:30:49.523Z,71.59
2023-10-26T05:33:16.164Z,71.89
2023-10-26T05:35:42.971Z,71.88
2023-10-26T05:38:09.703Z,72.09
2023-10-26T05:40:36.312Z,72.25
2023-10-26T05:43:03.012Z,72.24
2023-10-26T05:45:29.718Z,72.48
2023-10-26T05:47:56.632Z,72.63
2023-10-26T05:50:23.368Z,72.78
2023-10-26T05:52:49.998Z,72.95
2023-10-26T05:55:16.775Z,73.21
2023-10-26T05:57:43.423Z,73.60
2023-10-26T06:00:11.078Z,73.70
2023-10-26T06:02:40.579Z,73.71
2023-10-26T06:05:07.599Z,73.97
2023-10-26T06:07:34.288Z,74.10
2023-10-26T06:10:00.898Z,74.34
2023-10-26T06:12:27.522Z,74.24
2023-10-26T06:14:54.192Z,74.38
2023-10-26T06:17:20.829Z,74.50
2023-10-26T06:19:47.469Z,74.60
2023-10-26T06:22:14.078Z,74.34
2023-10-26T06:24:40.888Z,74.46
2023-10-26T06:27:07.638Z,74.53
2023-10-26T06:29:34.294Z,74.50
2023-10-26T06:32:00.981Z,74.46
2023-10-26T06:34:27.684Z,74.30
2023-10-26T06:36:54.289Z,74.23
2023-10-26T06:39:20.919Z,74.33
2023-10-26T06:41:49.385Z,74.30
2023-10-26T06:44:17.198Z,74.05
2023-10-26T06:46:43.823Z,74.05
2023-10-26T06:49:26.633Z,74.15
2023-10-26T06:51:56.201Z,74.09
2023-10-26T06:54:22.961Z,74.20
2023-10-26T06:56:49.625Z,74.02
2023-10-26T06:59:16.252Z,74.14
2023-10-26T07:02:07.920Z,74.38
2023-10-26T07:04:29.867Z,74.36
2023-10-26T07:06:57.570Z,74.33
2023-10-26T07:09:25.371Z,73.96
2023-10-26T07:11:52.191Z,73.77
2023-10-26T07:14:18.877Z,73.49
2023-10-26T07:16:45.491Z,73.42
2023-10-26T07:19:12.225Z,73.24
2023-10-26T07:21:39.101Z,73.41
2023-10-26T07:24:06.134Z,73.76
2023-10-26T07:26:32.922Z,74.00
2023-10-26T07:28:59.589Z,74.07
2023-10-26T07:31:26.207Z,74.05
2023-10-26T07:33:52.935Z,74.21
2023-10-26T07:36:19.818Z,73.99
2023-10-26T07:38:46.682Z,74.24
2023-10-26T07:44:20.021Z,74.51
2023-10-26T07:46:46.652Z,74.55
2023-10-26T07:49:13.254Z,74.62
2023-10-26T07:51:39.974Z,74.73
2023-10-26T07:56:53.423Z,74.83
2023-10-26T07:59:20.053Z,74.73
2023-10-26T08:01:46.724Z,74.96
2023-10-26T08:04:13.538Z,75.30
2023-10-26T08:06:40.143Z,75.31
2023-10-26T08:09:06.905Z,75.23
2023-10-26T08:11:33.589Z,74.80
2023-10-26T08:14:00.239Z,74.63
2023-10-26T08:16:44.241Z,74.06
2023-10-26T08:19:11.709Z,73.78
2023-10-26T08:21:38.373Z,73.45
2023-10-26T08:24:05.386Z,73.22
2023-10-26T08:26:31.973Z,73.32
2023-10-26T08:29:10.594Z,73.21
2023-10-26T08:31:42.058Z,73.62
2023-10-26T08:34:10.309Z,73.65
2023-10-26T08:36:38.594Z,73.96
2023-10-26T08:39:06.944Z,73.91
2023-10-26T08:41:33.620Z,73.64
2023-10-26T08:44:01.354Z,73.89
2023-10-26T08:46:28.437Z,73.75
2023-10-26T08:48:57.238Z,73.38
2023-10-26T08:51:23.952Z,73.12
2023-10-26T08:53:50.968Z,73.07
2023-10-26T08:56:19.490Z,72.54
2023-10-26T08:58:46.315Z,72.89
2023-10-26T09:01:12.938Z,72.78
2023-10-26T09:03:39.603Z,72.63
2023-10-26T09:06:06.362Z,72.26
2023-10-26T09:08:33.001Z,72.27
2023-10-26T09:10:59.720Z,72.19
2023-10-26T09:13:28.263Z,72.16
2023-10-26T09:15:57.178Z,72.02
2023-10-26T09:18:27.691Z,71.38
2023-10-26T09:21:08.459Z,71.08
2023-10-26T09:23:37.092Z,72.61
2023-10-26T09:26:09.286Z,71.34
2023-10-26T09:28:50.300Z,70.56
2023-10-26T09:31:17.164Z,73.37
2023-10-26T09:33:44.231Z,73.03
2023-10-26T09:36:12.343Z,73.05
2023-10-26T09:38:39.088Z,70.02
2023-10-26T09:41:17.936Z,70.66
2023-10-26T09:43:44.828Z,72.55
2023-10-26T09:46:12.875Z,72.22
2023-10-26T09:48:39.925Z,70.49
2023-10-26T09:51:06.743Z,72.01
2023-10-26T09:53:39.269Z,71.12
2023-10-26T09:56:07.455Z,72.01
2023-10-26T09:58:41.155Z,70.93
2023-10-26T10:01:36.510Z,70.85
2023-10-26T10:04:03.901Z,72.59
2023-10-26T10:07:06.119Z,70.62
2023-10-26T10:09:33.146Z,72.92
2023-10-26T10:12:05.421Z,71.08
2023-10-26T10:14:50.431Z,70.72
2023-10-26T10:17:20.630Z,72.25
2023-10-26T10:19:48.563Z,72.53
2023-10-26T10:22:41.212Z,71.13
2023-10-26T10:25:09.094Z,73.28
2023-10-26T10:27:36.083Z,73.48
2023-10-26T10:30:09.214Z,73.15
2023-10-26T10:32:44.783Z,72.77
2023-10-26T10:35:12.841Z,74.36
2023-10-26T10:37:39.884Z,74.89
2023-10-26T10:40:16.687Z,74.37
2023-10-26T10:42:51.297Z,73.85
2023-10-26T10:45:19.381Z,75.00
2023-10-26T10:47:47.459Z,74.76
2023-10-26T10:50:17.944Z,74.13
2023-10-26T10:52:44.652Z,75.23
2023-10-26T10:55:11.408Z,74.96
2023-10-26T10:57:56.694Z,72.72
2023-10-26T11:00:24.996Z,74.73
2023-10-26T11:02:51.975Z,74.65
2023-10-26T11:05:19.227Z,74.91
2023-10-26T11:07:46.077Z,74.94
2023-10-26T11:10:12.681Z,74.86
2023-10-26T11:12:39.348Z,75.00
2023-10-26T11:15:06.456Z,74.85
2023-10-26T11:17:33.354Z,75.01
2023-10-26T11:20:00.019Z,75.60
2023-10-26T11:22:26.670Z,76.21
2023-10-26T11:24:53.500Z,76.85
2023-10-26T11:27:21.866Z,76.66
2023-10-26T11:30:09.078Z,73.72
2023-10-26T11:32:36.025Z,76.58
2023-10-26T11:35:10.072Z,74.31
2023-10-26T11:37:38.526Z,76.51
2023-10-26T11:40:09.970Z,75.08
2023-10-26T11:42:58.121Z,74.03
2023-10-26T11:45:26.677Z,76.63
2023-10-26T11:47:58.528Z,74.90
2023-10-26T11:50:30.177Z,74.06
2023-10-26T11:52:57.925Z,75.82
2023-10-26T11:55:27.648Z,75.05
2023-10-26T11:57:55.732Z,76.03
2023-10-26T12:00:22.324Z,75.23
2023-10-26T12:02:49.209Z,75.96
2023-10-26T12:05:17.340Z,75.34
2023-10-26T12:07:47.817Z,72.31
2023-10-26T12:10:15.931Z,75.61
2023-10-26T12:12:42.545Z,72.88
2023-10-26T12:15:10.088Z,75.51
2023-10-26T12:17:36.795Z,75.53
2023-10-26T12:20:04.928Z,75.17
2023-10-26T12:22:31.730Z,72.55
2023-10-26T12:24:58.545Z,75.09
2023-10-26T12:27:26.133Z,74.62
2023-10-26T12:29:52.748Z,74.11
2023-10-26T12:32:19.474Z,73.64
2023-10-26T12:34:46.291Z,72.84
2023-10-26T12:37:12.864Z,72.90
2023-10-26T12:39:39.498Z,73.01
2023-10-26T12:42:06.238Z,72.86
2023-10-26T12:44:32.899Z,72.46
2023-10-26T12:46:59.843Z,72.56
2023-10-26T12:49:26.473Z,72.55
2023-10-26T12:51:53.277Z,71.96
2023-10-26T12:54:20.020Z,70.80
2023-10-26T12:56:46.774Z,69.81
2023-10-26T12:59:13.374Z,69.12
2023-10-26T13:01:40.144Z,68.46
2023-10-26T13:04:07.237Z,67.93
2023-10-26T13:06:34.909Z,67.73
2023-10-26T13:09:04.901Z,66.61
2023-10-26T13:14:25.273Z,67.61
2023-10-26T13:16:58.341Z,67.41
2023-10-26T13:19:25.847Z,67.51
2023-10-26T13:21:52.536Z,68.21
2023-10-26T13:24:19.158Z,68.54
2023-10-26T13:26:45.808Z,68.84
2023-10-26T13:29:12.525Z,69.10
2023-10-26T13:31:39.196Z,69.64
2023-10-26T13:34:05.895Z,70.31
2023-10-26T13:36:35.257Z,70.93
2023-10-26T13:39:01.963Z,71.24
2023-10-26T13:41:28.602Z,71.59
2023-10-26T13:43:55.288Z,72.08
2023-10-26T13:46:21.907Z,72.31
2023-10-26T13:48:48.527Z,72.41
2023-10-26T13:51:21.339Z,71.97
2023-10-26T13:53:51.413Z,72.27
2023-10-26T13:56:18.107Z,72.50
2023-10-26T13:58:44.818Z,72.57
2023-10-26T14:01:15.229Z,72.19
2023-10-26T14:03:42.494Z,72.60
2023-10-26T14:06:09.416Z,72.64
2023-10-26T14:08:36.302Z,72.76
2023-10-26T14:11:03.073Z,72.85
2023-10-26T14:13:29.894Z,72.76
2023-10-26T14:15:56.723Z,72.77
2023-10-26T14:18:23.588Z,72.79
2023-10-26T14:20:50.552Z,73.11
2023-10-26T14:23:17.142Z,73.19
2023-10-26T14:25:43.811Z,73.69
2023-10-26T14:28:10.525Z,73.69
2023-10-26T14:30:37.306Z,73.60
2023-10-26T14:33:03.967Z,73.63
2023-10-26T14:35:30.716Z,74.02
2023-10-26T14:37:57.432Z,73.68
2023-10-26T14:40:24.077Z,73.40
2023-10-26T14:42:50.708Z,73.22
2023-10-26T14:45:17.403Z,72.87
2023-10-26T14:47:44.082Z,72.76
2023-10-26T14:50:10.742Z,72.60
2023-10-26T14:52:37.544Z,71.99
2023-10-26T14:55:04.519Z,71.99
2023-10-26T14:57:31.396Z,71.79
2023-10-26T14:59:58.055Z,71.32
2023-10-26T15:02:24.717Z,71.21
2023-10-26T15:04:51.404Z,71.29
2023-10-26T15:07:18.026Z,71.30
2023-10-26T15:10:23.609Z,71.37
2023-10-26T15:12:31.207Z,71.27
2023-10-26T15:14:58.310Z,71.43
2023-10-26T15:17:25.070Z,71.23
2023-10-26T15:19:51.845Z,71.54
2023-10-26T15:22:18.648Z,71.43
2023-10-26T15:24:45.387Z,71.36
2023-10-26T15:27:12.391Z,71.29
2023-10-26T15:29:39.019Z,71.39
2023-10-26T15:32:06.075Z,70.99
2023-10-26T15:34:32.752Z,71.17
2023-10-26T15:37:00.204Z,71.21
2023-10-26T15:39:28.037Z,71.01
2023-10-26T15:41:55.157Z,70.90
2023-10-26T15:44:25.094Z,69.90
2023-10-26T15:46:51.718Z,70.68
2023-10-26T15:49:32.017Z,70.59
2023-10-26T15:52:01.154Z,70.65
2023-10-26T15:54:27.826Z,70.87
2023-10-26T15:56:54.467Z,70.76
2023-10-26T15:59:24.314Z,70.14
2023-10-26T16:01:51.207Z,70.57
2023-10-26T16:04:17.886Z,70.58
2023-10-26T16:06:44.524Z,70.68
2023-10-26T16:09:11.200Z,70.86
2023-10-26T16:11:37.920Z,70.89
2023-10-26T16:14:04.539Z,70.87
2023-10-26T16:16:31.283Z,70.88
2023-10-26T16:18:58.139Z,70.78
2023-10-26T16:21:24.735Z,70.71
2023-10-26T16:23:51.456Z,70.84
2023-10-26T16:26:18.057Z,70.91
2023-10-26T16:28:45.318Z,70.73
2023-10-26T16:31:13.303Z,70.69
2023-10-26T16:33:40.044Z,70.73
2023-10-26T16:36:07.091Z,70.79
2023-10-26T16:38:33.825Z,70.89
2023-10-26T16:41:00.436Z,70.92
2023-10-26T16:43:27.104Z,70.98
2023-10-26T16:45:56.025Z,71.23
2023-10-26T16:48:22.684Z,71.16
2023-10-26T16:50:49.463Z,71.32
2023-10-26T16:53:30.002Z,71.24
2023-10-26T16:56:02.912Z,70.85
2023-10-26T16:58:30.536Z,71.67
2023-10-26T17:00:59.393Z,71.74
2023-10-26T17:03:26.756Z,71.94
2023-10-26T17:05:53.393Z,71.88
2023-10-26T17:08:20.244Z,72.03
2023-10-26T17:10:46.908Z,72.04
2023-10-26T17:13:13.628Z,71.89
2023-10-26T17:15:40.323Z,72.18
2023-10-26T17:18:07.195Z,72.08
2023-10-26T17:20:34.077Z,72.41
2023-10-26T17:23:00.727Z,72.50
2023-10-26T17:25:27.365Z,72.52
2023-10-26T17:27:53.988Z,72.34
2023-10-26T17:30:20.721Z,72.58
2023-10-26T17:32:47.457Z,72.36
2023-10-26T17:35:14.147Z,72.35
2023-10-26T17:37:40.902Z,72.61
2023-10-26T17:40:07.864Z,72.78
2023-10-26T17:42:34.691Z,72.84
2023-10-26T17:45:01.314Z,72.96
2023-10-26T17:47:28.118Z,72.97
2023-10-26T17:49:54.834Z,73.22
2023-10-26T17:52:21.426Z,72.97
2023-10-26T17:54:48.258Z,72.99
2023-10-26T17:57:14.957Z,73.12
2023-10-26T17:59:41.681Z,73.00
2023-10-26T18:02:08.416Z,73.03
2023-10-26T18:04:35.299Z,72.94
2023-10-26T18:07:02.022Z,73.05
2023-10-26T18:09:28.738Z,73.18
2023-10-26T18:11:55.411Z,73.00
2023-10-26T18:14:22.011Z,73.01
2023-10-26T18:16:48.842Z,72.88
2023-10-26T18:19:15.596Z,72.95
2023-10-26T18:21:42.429Z,72.99
2023-10-26T18:24:09.316Z,73.09
2023-10-26T18:26:36.365Z,73.06
2023-10-26T18:29:02.956Z,73.07
2023-10-26T18:31:29.745Z,72.93
2023-10-26T18:33:56.597Z,72.94
2023-10-26T18:36:23.340Z,73.00
2023-10-26T18:38:49.989Z,72.90
2023-10-26T18:41:20.986Z,72.22
2023-10-26T18:43:50.049Z,72.79
2023-10-26T18:46:16.934Z,73.17
2023-10-26T18:48:43.958Z,72.99
2023-10-26T18:51:11.580Z,73.01
2023-10-26T18:53:41.439Z,72.30
2023-10-26T18:56:15.848Z,71.86
2023-10-26T18:58:43.084Z,73.00
2023-10-26T19:01:09.817Z,72.99
2023-10-26T19:03:46.090Z,72.88
2023-10-26T19:06:23.337Z,72.80
2023-10-26T19:08:49.966Z,72.72
2023-10-26T19:11:16.643Z,72.69
2023-10-26T19:13:43.692Z,72.51
2023-10-26T19:16:10.516Z,72.51
2023-10-26T19:18:37.326Z,72.51
2023-10-26T19:21:04.242Z,72.38
2023-10-26T19:23:30.912Z,72.37
2023-10-26T19:25:58.897Z,72.11
2023-10-26T19:28:25.509Z,71.82
2023-10-26T19:30:52.159Z,72.46
2023-10-26T19:33:18.873Z,72.62
2023-10-26T19:35:45.603Z,72.63
2023-10-26T19:38:12.338Z,72.55
2023-10-26T19:40:41.794Z,71.67
2023-10-26T19:43:08.698Z,72.31
2023-10-26T19:45:35.338Z,72.31
2023-10-26T19:48:02.252Z,72.30
2023-10-26T19:50:31.407Z,72.23
2023-10-26T19:52:58.829Z,72.38
2023-10-26T19:55:25.478Z,72.23
2023-10-26T19:57:52.134Z,72.14
2023-10-26T20:00:19.207Z,72.37
2023-10-26T20:02:46.037Z,72.26
2023-10-26T20:05:12.831Z,72.33
2023-10-26T20:07:39.466Z,72.40
2023-10-26T20:10:06.509Z,72.38
2023-10-26T20:12:33.158Z,72.33
2023-10-26T20:14:59.775Z,72.38
2023-10-26T20:17:26.468Z,72.24
2023-10-26T20:19:53.099Z,72.31
2023-10-26T20:22:19.838Z,72.26
2023-10-26T20:24:46.665Z,72.27
2023-10-26T20:27:13.281Z,72.01
2023-10-26T20:29:39.913Z,72.00
2023-10-26T20:32:06.981Z,71.98
2023-10-26T20:34:33.627Z,71.85
2023-10-26T20:37:00.354Z,71.78
2023-10-26T20:39:27.063Z,71.77
2023-10-26T20:41:53.721Z,71.76
2023-10-26T20:44:20.366Z,71.81
2023-10-26T20:46:47.101Z,72.02
2023-10-26T20:49:13.873Z,72.07
2023-10-26T20:51:41.272Z,71.85
2023-10-26T20:54:08.008Z,72.05
2023-10-26T20:56:34.638Z,72.21
2023-10-26T20:59:01.299Z,72.23
2023-10-26T21:01:27.983Z,72.23
2023-10-26T21:03:54.739Z,72.23
2023-10-26T21:06:21.398Z,72.50
2023-10-26T21:08:48.137Z,72.62
2023-10-26T21:11:16.657Z,72.41
2023-10-26T21:13:43.724Z,72.71
2023-10-26T21:16:10.751Z,72.61
2023-10-26T21:18:37.479Z,72.49
2023-10-26T21:21:05.662Z,72.32
2023-10-26T21:23:32.337Z,71.92
2023-10-26T21:26:07.091Z,71.22
2023-10-26T21:28:34.194Z,71.29
2023-10-26T21:31:01.201Z,71.18
2023-10-26T21:33:28.077Z,70.87
2023-10-26T21:35:54.756Z,70.86
2023-10-26T21:38:21.390Z,71.24
2023-10-26T21:40:48.114Z,71.48
2023-10-26T21:43:15.360Z,71.42
2023-10-26T21:45:42.616Z,71.46
2023-10-26T21:48:09.386Z,71.16
2023-10-26T21:50:36.104Z,71.15
2023-10-26T21:53:02.913Z,70.83
2023-10-26T21:55:29.587Z,71.07
2023-10-26T21:57:56.383Z,69.67
2023-10-26T22:00:23.052Z,68.88
2023-10-26T22:02:49.737Z,68.27
2023-10-26T22:05:16.432Z,67.59
2023-10-26T22:07:43.126Z,67.29
2023-10-26T22:10:10.086Z,67.08
2023-10-26T22:12:36.779Z,67.64
2023-10-26T22:15:03.695Z,67.67
2023-10-26T22:17:30.389Z,68.14
2023-10-26T22:19:57.266Z,68.01
2023-10-26T22:22:24.013Z,67.95
2023-10-26T22:24:50.732Z,67.37
2023-10-26T22:27:17.454Z,67.84
2023-10-26T22:29:44.266Z,67.88
2023-10-26T22:32:11.054Z,67.93
2023-10-26T22:34:37.758Z,68.36
2023-10-26T22:37:04.562Z,68.31
2023-10-26T22:39:31.207Z,68.43
2023-10-26T22:41:58.104Z,68.38
2023-10-26T22:44:24.723Z,68.43
2023-10-26T22:46:51.350Z,68.83
2023-10-26T22:49:18.189Z,68.94
2023-10-26T22:51:44.911Z,69.49
2023-10-26T22:54:11.547Z,69.75
2023-10-26T22:56:38.187Z,69.72
2023-10-26T22:59:04.838Z,69.41
2023-10-26T23:01:31.465Z,69.43
2023-10-26T23:03:58.361Z,69.60
2023-10-26T23:06:25.048Z,69.65
2023-10-26T23:08:51.664Z,69.11
2023-10-26T23:11:18.306Z,68.54
2023-10-26T23:13:44.990Z,68.50
2023-10-26T23:16:11.794Z,68.91
2023-10-26T23:18:38.632Z,68.89
2023-10-26T23:21:05.347Z,69.01
2023-10-26T23:23:32.012Z,69.02
2023-10-26T23:25:58.771Z,69.16
2023-10-26T23:28:25.521Z,69.13
2023-10-26T23:30:52.262Z,68.54
2023-10-26T23:33:18.888Z,67.59
2023-10-26T23:35:45.504Z,67.87
2023-10-26T23:38:12.206Z,68.34
2023-10-26T23:40:38.928Z,68.82
2023-10-26T23:43:05.538Z,68.97
2023-10-26T23:45:32.310Z,69.02
2023-10-26T23:47:59.001Z,69.04
2023-10-26T23:50:25.660Z,68.97
2023-10-26T23:52:52.340Z,68.82
2023-10-26T23:55:19.099Z,68.46
2023-10-26T23:57:45.747Z,68.25
